Time;durP1;ratioP1;P1;durP2;ratioP2;P2;SDS_P1;SDS_P2;PMS_P1;PMS_P2;Temp;Humidity;BMP_temperature;BMP_pressure;BME280_temperature;BME280_humidity;BME280_pressure;Samples;Min_cycle;Max_cycle;Signal;HPM_P1;HPM_P2
2023/03/22 00:02:32;;;;;;;66.30;37.70;;;;;;;1.59;82.43;99759.34;219825;1254;140212;-65
2023/03/22 00:07:37;;;;;;;58.20;36.10;;;;;;;1.61;82.72;99758.73;219926;1254;139684;-65
2023/03/22 00:12:41;;;;;;;58.90;35.50;;;;;;;1.61;82.44;99758.57;220782;1254;139402;-67
2023/03/22 00:17:46;;;;;;;67.50;37.50;;;;;;;1.61;82.57;99747.83;219303;1254;139511;-70
2023/03/22 00:22:51;;;;;;;57.30;30.30;;;;;;;1.66;83.04;99734.48;219676;1256;140896;-69
2023/03/22 00:27:56;;;;;;;63.10;33.40;;;;;;;1.72;83.24;99730.83;220784;1254;139788;-66
2023/03/22 00:33:00;;;;;;;62.70;35.30;;;;;;;1.76;83.56;99730.41;218464;1254;140738;-72
2023/03/22 00:38:12;;;;;;;59.90;34.40;;;;;;;1.74;83.24;99727.27;217851;1254;139651;-67
2023/03/22 00:43:17;;;;;;;54.30;33.20;;;;;;;1.72;83.26;99730.17;218278;1254;139574;-68
2023/03/22 00:48:23;;;;;;;55.60;31.10;;;;;;;1.71;83.59;99729.20;218964;1254;139755;-64
2023/03/22 00:53:28;;;;;;;50.80;30.70;;;;;;;1.71;83.73;99725.36;218283;1256;140134;-66
2023/03/22 00:58:33;;;;;;;51.00;27.10;;;;;;;1.66;83.66;99720.79;218206;1253;139854;-62
2023/03/22 01:03:38;;;;;;;43.40;25.90;;;;;;;1.68;84.00;99720.41;218654;1256;141457;-64
2023/03/22 01:08:42;;;;;;;54.40;29.90;;;;;;;1.69;83.97;99712.29;218565;1254;139266;-64
2023/03/22 01:13:47;;;;;;;41.70;25.10;;;;;;;1.68;84.23;99710.92;218267;1256;210075;-68
2023/03/22 01:18:51;;;;;;;43.20;25.60;;;;;;;1.68;84.08;99710.80;218038;1257;141690;-67
2023/03/22 01:23:56;;;;;;;47.10;24.60;;;;;;;1.61;84.04;99707.92;218510;1259;139514;-64
2023/03/22 01:29:01;;;;;;;41.20;24.70;;;;;;;1.58;84.12;99694.77;217788;1257;139340;-68
2023/03/22 01:34:08;;;;;;;46.80;25.50;;;;;;;1.63;85.24;99690.10;218282;1257;139822;-66
2023/03/22 01:39:13;;;;;;;41.70;23.70;;;;;;;1.66;85.39;99681.28;218658;1258;140384;-65
2023/03/22 01:44:20;;;;;;;53.50;27.90;;;;;;;1.73;85.96;99672.23;218392;1256;140009;-66
2023/03/22 01:49:34;;;;;;;42.00;26.20;;;;;;;1.81;86.05;99660.19;218570;1257;139445;-65
2023/03/22 01:54:52;;;;;;;50.10;29.50;;;;;;;1.89;86.66;99655.51;218729;1258;139622;-64
2023/03/22 01:59:59;;;;;;;43.70;24.90;;;;;;;2.09;87.49;99651.14;219723;1256;139647;-66
2023/03/22 02:05:05;;;;;;;37.00;22.10;;;;;;;2.30;87.44;99637.70;220542;1256;140496;-67
2023/03/22 02:10:19;;;;;;;48.50;28.50;;;;;;;2.49;87.34;99628.36;220532;1256;140174;-69
2023/03/22 02:15:46;;;;;;;42.40;24.60;;;;;;;2.66;87.38;99624.06;220610;1256;140455;-68
2023/03/22 02:21:18;;;;;;;41.00;24.10;;;;;;;2.85;87.52;99623.52;220604;1256;140858;-67
2023/03/22 02:26:49;;;;;;;42.60;24.90;;;;;;;3.02;87.45;99617.99;218506;1257;139497;-65
2023/03/22 02:32:31;;;;;;;39.00;25.10;;;;;;;3.20;87.76;99613.19;218260;1256;139907;-66
2023/03/22 02:37:52;;;;;;;33.00;20.00;;;;;;;3.36;87.89;99612.95;219128;1257;226152;-67
2023/03/22 02:43:09;;;;;;;40.40;24.40;;;;;;;3.53;87.76;99605.30;218309;1257;140030;-67
2023/03/22 02:48:26;;;;;;;43.20;26.30;;;;;;;3.67;88.16;99597.68;217983;1259;139753;-66
2023/03/22 02:53:53;;;;;;;43.00;24.40;;;;;;;3.80;88.21;99596.45;218377;1256;139568;-67
2023/03/22 02:59:03;;;;;;;43.10;21.20;;;;;;;3.93;88.27;99592.89;218005;1257;141562;-66
2023/03/22 03:04:13;;;;;;;41.60;24.10;;;;;;;4.02;88.21;99595.35;218380;1259;139317;-65
2023/03/22 03:09:20;;;;;;;45.40;24.60;;;;;;;4.11;88.04;99597.20;218129;1256;140719;-65
2023/03/22 03:14:30;;;;;;;34.90;21.10;;;;;;;4.19;88.19;99596.38;217755;1257;140168;-65
2023/03/22 03:19:58;;;;;;;37.40;23.80;;;;;;;4.27;88.34;99597.46;218560;1257;140785;-65
2023/03/22 03:25:31;;;;;;;41.20;24.90;;;;;;;4.34;88.35;99594.06;217873;1259;139838;-68
2023/03/22 03:30:55;;;;;;;32.40;19.40;;;;;;;4.42;88.25;99595.80;218315;1257;140216;-64
2023/03/22 03:36:14;;;;;;;31.00;18.70;;;;;;;4.49;88.22;99590.23;218717;1256;140263;-66
2023/03/22 03:41:23;;;;;;;36.00;23.30;;;;;;;4.54;88.04;99592.77;218479;1256;139916;-68
2023/03/22 03:46:28;;;;;;;39.00;22.70;;;;;;;4.60;88.07;99592.15;217884;1256;141209;-67
2023/03/22 03:51:43;;;;;;;37.60;21.70;;;;;;;4.65;88.32;99590.55;218471;1259;140557;-67
2023/03/22 03:56:48;;;;;;;43.70;24.70;;;;;;;4.70;88.27;99593.88;217954;1259;140740;-65
2023/03/22 04:01:52;;;;;;;42.00;24.80;;;;;;;4.76;88.09;99591.46;219722;1259;139609;-68
2023/03/22 04:06:58;;;;;;;45.50;24.80;;;;;;;4.80;88.08;99586.60;219743;1256;139168;-69
2023/03/22 04:12:03;;;;;;;38.90;22.90;;;;;;;4.86;88.09;99586.98;220435;1257;141321;-68
2023/03/22 04:17:08;;;;;;;30.30;19.50;;;;;;;4.93;87.88;99583.14;220392;1257;140203;-68
2023/03/22 04:22:17;;;;;;;27.70;18.30;;;;;;;5.00;87.88;99580.20;217987;1259;140413;-67
2023/03/22 04:27:21;;;;;;;43.00;24.30;;;;;;;5.07;87.83;99579.19;218045;1259;139318;-68
2023/03/22 04:32:25;;;;;;;36.20;22.70;;;;;;;5.14;87.79;99577.45;218196;1257;139943;-67
2023/03/22 04:37:32;;;;;;;43.00;24.20;;;;;;;5.19;88.08;99575.17;219002;1256;140642;-67
2023/03/22 04:42:36;;;;;;;42.70;24.70;;;;;;;5.25;88.06;99572.06;218421;1256;139317;-68
2023/03/22 04:47:40;;;;;;;38.80;23.90;;;;;;;5.33;88.08;99576.61;218265;1259;139983;-66
2023/03/22 04:52:44;;;;;;;40.50;23.80;;;;;;;5.40;87.87;99577.30;218449;1258;140016;-68
2023/03/22 04:57:48;;;;;;;47.10;25.30;;;;;;;5.45;87.84;99582.88;217751;1257;140432;-68
2023/03/22 05:02:51;;;;;;;48.00;27.50;;;;;;;5.50;87.83;99583.42;217689;1257;139724;-67
2023/03/22 05:07:56;;;;;;;47.80;28.80;;;;;;;5.55;88.07;99583.49;217603;1257;140050;-68
2023/03/22 05:13:00;;;;;;;52.00;29.10;;;;;;;5.58;87.88;99579.39;217754;1258;140998;-69
2023/03/22 05:18:04;;;;;;;47.20;25.60;;;;;;;5.61;87.82;99574.34;217719;1259;139796;-67
2023/03/22 05:23:09;;;;;;;53.90;31.70;;;;;;;5.68;88.09;99577.88;218168;1259;139602;-68
2023/03/22 05:28:13;;;;;;;54.10;30.80;;;;;;;5.74;87.93;99578.55;217926;1257;141763;-68
2023/03/22 05:33:20;;;;;;;51.30;29.50;;;;;;;5.81;88.00;99578.08;217532;1260;140098;-67
2023/03/22 05:38:24;;;;;;;58.70;32.70;;;;;;;5.87;88.04;99578.50;218514;1259;140290;-66
2023/03/22 05:43:29;;;;;;;55.60;32.30;;;;;;;5.91;88.03;99575.88;217712;1259;140452;-67
2023/03/22 05:48:35;;;;;;;49.10;29.30;;;;;;;5.96;87.96;99577.45;217676;1260;140227;-67
2023/03/22 05:53:40;;;;;;;58.00;33.10;;;;;;;6.00;88.00;99581.08;218234;1260;139817;-67
2023/03/22 05:58:44;;;;;;;51.30;30.10;;;;;;;6.04;87.95;99580.79;217543;1257;140983;-68
2023/03/22 06:03:49;;;;;;;58.80;34.80;;;;;;;6.08;87.57;99582.69;220413;1259;140888;-71
2023/03/22 06:08:57;;;;;;;58.60;32.90;;;;;;;6.12;87.70;99589.20;220418;1258;139899;-67
2023/03/22 06:14:18;;;;;;;62.30;34.00;;;;;;;6.17;87.34;99588.86;218994;1256;139615;-68
2023/03/22 06:19:22;;;;;;;59.10;35.60;;;;;;;6.23;87.47;99588.91;218433;1259;139936;-67
2023/03/22 06:24:26;;;;;;;64.60;34.30;;;;;;;6.29;87.62;99576.23;220460;1257;140346;-69
2023/03/22 06:29:30;;;;;;;61.20;32.40;;;;;;;6.38;87.69;99575.34;219298;1256;140101;-67
2023/03/22 06:34:33;;;;;;;55.60;33.90;;;;;;;6.48;87.66;99573.65;218349;1257;229244;-68
2023/03/22 06:39:37;;;;;;;60.00;32.20;;;;;;;6.56;87.48;99574.27;219215;1257;140205;-68
2023/03/22 06:44:42;;;;;;;63.40;37.60;;;;;;;6.64;87.19;99570.10;218812;1258;139585;-70
2023/03/22 06:49:47;;;;;;;56.90;32.90;;;;;;;6.75;87.43;99566.64;217785;1255;139830;-69
2023/03/22 06:54:51;;;;;;;64.50;36.40;;;;;;;6.81;87.35;99564.98;217526;1256;398531;-69
2023/03/22 06:59:56;;;;;;;59.40;36.20;;;;;;;6.91;87.49;99573.19;217557;1260;140815;-66
2023/03/22 07:05:01;;;;;;;62.40;36.20;;;;;;;7.09;87.44;99566.15;217790;1260;139481;-66
2023/03/22 07:10:06;;;;;;;59.50;36.10;;;;;;;7.29;87.49;99556.62;217603;1260;140472;-68
2023/03/22 07:15:11;;;;;;;64.60;36.50;;;;;;;7.40;86.93;99560.09;218686;1257;139665;-67
2023/03/22 07:20:17;;;;;;;60.30;35.30;;;;;;;7.56;87.32;99552.27;218519;1259;140333;-67
2023/03/22 07:25:23;;;;;;;58.80;35.00;;;;;;;7.83;87.02;99552.95;217988;1258;140643;-67
2023/03/22 07:30:28;;;;;;;54.10;31.90;;;;;;;8.18;87.13;99553.70;217613;1257;141192;-66
2023/03/22 07:35:32;;;;;;;60.40;35.60;;;;;;;8.53;87.25;99554.70;217702;1259;141019;-66
2023/03/22 07:40:37;;;;;;;62.90;38.00;;;;;;;8.86;86.81;99549.50;217651;1257;140554;-67
2023/03/22 07:45:42;;;;;;;57.50;34.10;;;;;;;9.25;86.68;99548.15;217414;1260;139774;-72
2023/03/22 07:50:47;;;;;;;59.50;33.00;;;;;;;9.60;86.24;99543.96;218786;1257;140682;-70
2023/03/22 07:55:53;;;;;;;50.20;32.60;;;;;;;9.96;85.99;99541.89;219744;1256;140657;-70
2023/03/22 08:01:07;;;;;;;50.00;29.60;;;;;;;10.14;85.05;99546.09;219461;1257;141757;-67
2023/03/22 08:06:12;;;;;;;47.30;29.30;;;;;;;10.29;84.88;99543.95;217657;1260;140364;-66
2023/03/22 08:11:16;;;;;;;36.00;24.50;;;;;;;10.41;84.39;99537.73;218058;1254;139735;-68
2023/03/22 08:16:21;;;;;;;43.40;28.30;;;;;;;10.58;84.22;99540.33;218548;1256;140545;-67
2023/03/22 08:21:26;;;;;;;37.00;22.40;;;;;;;10.84;84.15;99538.29;218190;1257;139997;-69
2023/03/22 08:26:30;;;;;;;50.10;30.90;;;;;;;11.03;83.44;99534.60;217713;1259;141242;-70
2023/03/22 08:31:34;;;;;;;42.30;27.70;;;;;;;11.33;83.33;99534.65;217991;1257;141325;-71
2023/03/22 08:36:38;;;;;;;45.30;30.20;;;;;;;11.76;82.93;99530.71;217720;1257;140347;-73
2023/03/22 08:41:41;;;;;;;50.00;30.70;;;;;;;12.16;82.39;99528.52;218136;1257;139884;-71
2023/03/22 08:46:45;;;;;;;46.50;28.20;;;;;;;12.04;80.68;99526.12;217457;1260;140914;-72
2023/03/22 08:51:50;;;;;;;48.20;29.40;;;;;;;11.86;80.85;99534.19;217659;1260;139596;-71
2023/03/22 08:56:54;;;;;;;37.90;24.00;;;;;;;11.98;81.12;99530.48;217556;1258;141662;-71
2023/03/22 09:01:59;;;;;;;48.50;31.20;;;;;;;12.02;80.33;99527.86;217748;1257;141065;-70
2023/03/22 09:07:05;;;;;;;46.60;29.80;;;;;;;12.10;80.32;99525.61;217737;1256;140662;-69
2023/03/22 09:12:09;;;;;;;42.40;29.30;;;;;;;12.42;80.51;99520.98;218216;1254;140406;-72
2023/03/22 09:17:13;;;;;;;38.70;24.00;;;;;;;12.78;80.02;99517.27;217921;1259;141239;-69
2023/03/22 09:22:18;;;;;;;46.00;26.80;;;;;;;12.90;79.04;99514.23;218374;1255;140802;-70
2023/03/22 09:27:22;;;;;;;44.30;27.80;;;;;;;12.83;78.77;99513.62;218648;1256;140737;-68
2023/03/22 09:32:27;;;;;;;40.70;26.80;;;;;;;12.92;78.94;99515.02;217702;1254;141069;-70
2023/03/22 09:37:33;;;;;;;37.40;22.50;;;;;;;13.05;78.63;99510.32;217974;1256;140557;-70
2023/03/22 09:42:41;;;;;;;38.60;27.30;;;;;;;13.33;78.58;99506.35;217909;1256;141208;-71
2023/03/22 09:47:52;;;;;;;41.40;24.70;;;;;;;13.48;78.15;99508.16;217604;1259;140510;-70
2023/03/22 09:52:59;;;;;;;26.80;18.90;;;;;;;13.78;78.16;99507.68;219662;1257;139675;-70
2023/03/22 09:58:07;;;;;;;39.70;26.30;;;;;;;14.03;77.18;99504.20;219721;1256;140830;-70
2023/03/22 10:03:48;;;;;;;34.30;22.20;;;;;;;13.99;76.64;99500.27;217949;1259;140832;-69
2023/03/22 10:09:18;;;;;;;41.00;26.20;;;;;;;14.10;76.58;99499.91;218985;1256;139644;-69
2023/03/22 10:14:35;;;;;;;32.10;22.30;;;;;;;14.36;76.78;99500.86;219658;1257;224480;-69
2023/03/22 10:19:58;;;;;;;41.50;19.90;;;;;;;14.60;76.02;99495.08;217927;1257;139883;-68
2023/03/22 10:25:06;;;;;;;36.50;21.90;;;;;;;14.72;75.52;99499.10;218165;1256;140884;-69
2023/03/22 10:30:22;;;;;;;28.30;20.50;;;;;;;14.85;75.36;99489.77;217975;1259;139380;-70
2023/03/22 10:35:29;;;;;;;26.20;19.40;;;;;;;15.14;75.10;99489.92;217508;1258;139971;-69
2023/03/22 10:40:35;;;;;;;33.80;22.80;;;;;;;15.30;74.81;99487.86;217719;1259;139956;-69
2023/03/22 10:45:42;;;;;;;32.70;22.10;;;;;;;15.42;74.47;99488.26;217432;1259;140408;-70
2023/03/22 10:50:47;;;;;;;29.00;20.30;;;;;;;15.60;74.55;99478.45;217591;1257;140089;-68
2023/03/22 10:55:52;;;;;;;34.90;23.80;;;;;;;15.96;74.30;99472.19;217761;1256;139838;-70
2023/03/22 11:01:05;;;;;;;24.70;20.30;;;;;;;16.32;73.94;99467.52;218095;1254;140293;-71
2023/03/22 11:06:16;;;;;;;21.90;17.70;;;;;;;16.65;73.29;99464.19;217625;1257;139782;-70
2023/03/22 11:11:29;;;;;;;28.50;21.70;;;;;;;16.67;71.96;99459.81;217608;1259;140977;-72
2023/03/22 11:17:05;;;;;;;25.30;18.20;;;;;;;16.58;71.73;99457.48;218792;1256;140036;-71
2023/03/22 11:22:39;;;;;;;22.50;15.40;;;;;;;16.57;71.17;99451.30;217998;1258;140280;-71
2023/03/22 11:28:20;;;;;;;33.00;21.30;;;;;;;16.54;70.80;99444.88;218183;1256;139611;-71
2023/03/22 11:33:25;;;;;;;30.80;21.00;;;;;;;16.61;70.60;99442.88;217597;1256;140678;-69
2023/03/22 11:38:42;;;;;;;29.10;19.40;;;;;;;16.65;70.51;99439.87;219557;1255;140502;-73
2023/03/22 11:43:55;;;;;;;25.00;19.20;;;;;;;16.67;70.12;99432.42;217986;1257;140623;-74
2023/03/22 11:49:04;;;;;;;29.30;21.30;;;;;;;16.56;69.67;99427.27;217705;1257;139264;-75
2023/03/22 11:54:15;;;;;;;23.20;20.40;;;;;;;16.44;69.47;99427.84;219118;1254;141534;-69
2023/03/22 11:59:26;;;;;;;24.60;18.30;;;;;;;16.21;69.37;99421.33;220663;1254;140421;-69
2023/03/22 12:04:36;;;;;;;28.70;19.60;;;;;;;16.00;69.17;99423.13;220565;1254;140947;-68
2023/03/22 12:10:14;;;;;;;28.80;20.40;;;;;;;15.82;69.24;99414.91;219407;1256;140295;-66
2023/03/22 12:15:29;;;;;;;23.90;19.30;;;;;;;15.97;69.50;99400.57;217686;1256;139945;-70
2023/03/22 12:20:53;;;;;;;35.20;21.90;;;;;;;16.18;69.11;99394.31;217738;1259;140191;-68
2023/03/22 12:26:03;;;;;;;24.70;19.00;;;;;;;16.24;68.95;99383.55;217730;1259;140044;-71
2023/03/22 12:31:21;;;;;;;16.60;13.30;;;;;;;16.41;68.88;99380.80;219404;1256;140569;-72
2023/03/22 12:36:33;;;;;;;22.60;18.00;;;;;;;16.50;68.06;99373.63;218795;1255;139511;-71
2023/03/22 12:41:49;;;;;;;25.50;16.80;;;;;;;16.52;67.92;99370.09;217748;1257;140436;-72
2023/03/22 12:47:05;;;;;;;18.80;15.30;;;;;;;16.74;67.97;99364.88;217702;1254;139505;-71
2023/03/22 12:52:38;;;;;;;19.70;15.80;;;;;;;16.88;67.63;99354.17;217890;1257;142594;-71
2023/03/22 12:57:51;;;;;;;23.20;16.00;;;;;;;16.89;67.04;99352.11;217635;1259;140126;-71
2023/03/22 13:03:04;;;;;;;18.40;13.90;;;;;;;16.90;66.64;99353.66;217727;1257;140199;-80
2023/03/22 13:08:12;;;;;;;16.50;14.80;;;;;;;16.93;66.29;99346.90;218966;1256;139385;-75
2023/03/22 13:13:21;;;;;;;21.20;15.30;;;;;;;16.84;66.21;99348.34;218968;1256;139047;-77
2023/03/22 13:18:37;;;;;;;17.90;14.40;;;;;;;16.88;66.43;99344.44;217791;1254;139146;-81
2023/03/22 13:24:04;;;;;;;26.20;16.50;;;;;;;16.94;66.14;99336.83;217786;1257;139856;-83
2023/03/22 13:29:35;;;;;;;20.70;15.70;;;;;;;17.15;65.89;99339.05;218150;1259;138919;-87
2023/03/22 13:34:50;;;;;;;20.00;15.40;;;;;;;17.29;65.53;99330.45;218428;1256;140970;-74
2023/03/22 13:40:00;;;;;;;22.50;15.50;;;;;;;17.31;65.23;99318.62;217888;1254;140271;-78
2023/03/22 13:45:30;;;;;;;16.60;13.20;;;;;;;17.34;64.93;99312.66;217865;1256;140561;-80
2023/03/22 13:50:35;;;;;;;20.80;15.00;;;;;;;17.27;64.46;99314.90;218045;1256;139670;-82
2023/03/22 13:55:41;;;;;;;23.30;15.20;;;;;;;17.22;64.25;99309.08;218718;1256;141019;-76
2023/03/22 14:00:52;;;;;;;15.30;11.70;;;;;;;17.17;64.11;99309.14;219621;1256;139771;-77
2023/03/22 14:06:22;;;;;;;13.50;12.20;;;;;;;17.04;63.93;99306.08;218389;1256;138818;-76
2023/03/22 14:11:37;;;;;;;26.10;13.70;;;;;;;17.02;63.92;99306.86;217754;1258;141069;-78
2023/03/22 14:16:49;;;;;;;16.90;12.40;;;;;;;16.99;63.97;99300.86;217600;1256;140686;-75
2023/03/22 14:21:57;;;;;;;13.90;11.90;;;;;;;16.90;63.60;99299.81;217733;1256;140663;-75
2023/03/22 14:27:01;;;;;;;15.70;11.70;;;;;;;16.83;63.75;99292.35;217550;1259;141070;-73
2023/03/22 14:32:05;;;;;;;11.90;10.20;;;;;;;16.75;63.39;99290.63;217867;1257;139090;-80
2023/03/22 14:37:13;;;;;;;14.30;10.50;;;;;;;16.61;63.13;99291.02;217842;1257;140349;-74
2023/03/22 14:42:21;;;;;;;12.00;9.10;;;;;;;16.53;63.17;99292.27;217526;1259;139402;-73
2023/03/22 14:47:37;;;;;;;11.00;9.90;;;;;;;16.49;63.09;99292.91;217772;1259;139541;-76
2023/03/22 14:52:45;;;;;;;17.20;12.20;;;;;;;16.41;62.94;99286.85;217717;1258;139269;-74
2023/03/22 14:57:56;;;;;;;14.70;10.70;;;;;;;16.29;62.89;99279.70;217993;1256;138699;-72
2023/03/22 15:03:03;;;;;;;12.10;9.80;;;;;;;16.27;63.14;99275.52;217678;1259;140182;-69
2023/03/22 15:08:17;;;;;;;13.10;9.50;;;;;;;16.20;62.96;99266.29;217763;1254;139999;-76
2023/03/22 15:13:20;;;;;;;12.30;9.90;;;;;;;16.15;62.98;99260.20;217712;1257;139394;-72
2023/03/22 15:18:27;;;;;;;12.00;10.00;;;;;;;16.11;63.09;99253.15;218366;1256;139624;-72
2023/03/22 15:23:46;;;;;;;15.20;10.00;;;;;;;16.07;62.95;99242.95;218309;1256;139546;-74
2023/03/22 15:29:02;;;;;;;14.40;9.90;;;;;;;15.95;62.76;99236.98;218081;1254;139662;-68
2023/03/22 15:34:06;;;;;;;10.70;9.60;;;;;;;15.92;62.91;99237.80;217762;1257;139216;-74
2023/03/22 15:39:32;;;;;;;11.00;9.80;;;;;;;15.89;62.89;99238.44;220586;1256;139798;-68
2023/03/22 15:44:38;;;;;;;11.70;10.00;;;;;;;15.86;62.88;99235.56;218781;1256;140124;-70
2023/03/22 15:49:49;;;;;;;15.20;9.90;;;;;;;15.82;63.24;99228.50;218896;1256;141093;-68
2023/03/22 15:54:53;;;;;;;11.00;9.90;;;;;;;15.74;63.17;99222.15;218232;1255;139748;-68
2023/03/22 16:00:31;;;;;;;10.00;9.00;;;;;;;15.63;63.10;99224.44;217838;1257;140891;-70
2023/03/22 16:05:37;;;;;;;21.40;10.70;;;;;;;15.49;63.47;99224.26;217618;1254;139019;-69
2023/03/22 16:10:44;;;;;;;15.00;10.30;;;;;;;15.36;63.76;99225.23;218452;1256;139214;-73
2023/03/22 16:15:48;;;;;;;13.50;10.30;;;;;;;15.22;63.91;99226.09;218284;1256;139536;-75
2023/03/22 16:20:54;;;;;;;13.70;10.60;;;;;;;15.06;63.97;99224.33;217867;1256;140571;-68
2023/03/22 16:25:58;;;;;;;15.70;11.40;;;;;;;14.93;64.19;99219.30;218360;1257;140032;-70
2023/03/22 16:31:03;;;;;;;15.30;9.90;;;;;;;14.79;64.33;99224.20;217783;1256;139427;-73
2023/03/22 16:36:07;;;;;;;11.50;9.40;;;;;;;14.70;64.51;99238.27;217519;1259;139489;-73
2023/03/22 16:41:27;;;;;;;9.70;8.40;;;;;;;14.59;64.49;99244.44;217729;1255;139343;-73
2023/03/22 16:46:32;;;;;;;20.10;10.50;;;;;;;14.45;64.55;99246.23;218662;1256;139208;-81
2023/03/22 16:51:36;;;;;;;9.60;7.40;;;;;;;14.30;64.47;99248.66;217809;1257;139605;-74
2023/03/22 16:56:41;;;;;;;15.10;8.80;;;;;;;14.09;64.34;99253.61;217603;1257;140082;-71
2023/03/22 17:01:45;;;;;;;10.70;8.30;;;;;;;13.93;64.60;99256.45;217587;1259;139754;-76
2023/03/22 17:06:51;;;;;;;9.70;7.40;;;;;;;13.84;64.80;99263.67;217580;1257;140574;-83
2023/03/22 17:11:55;;;;;;;12.20;8.40;;;;;;;13.79;64.98;99270.54;218510;1256;140205;-75
2023/03/22 17:16:59;;;;;;;14.00;7.40;;;;;;;13.73;64.91;99266.95;217888;1256;140977;-84
2023/03/22 17:22:02;;;;;;;9.00;7.50;;;;;;;13.67;64.86;99268.83;217738;1257;141077;-77
2023/03/22 17:27:07;;;;;;;10.70;7.60;;;;;;;13.60;64.99;99273.15;219153;1256;140349;-71
2023/03/22 17:32:15;;;;;;;10.90;6.80;;;;;;;13.50;65.20;99277.98;218769;1257;139583;-66
2023/03/22 17:37:18;;;;;;;9.10;7.20;;;;;;;13.39;65.23;99275.79;220460;1256;140266;-71
2023/03/22 17:42:20;;;;;;;8.60;6.80;;;;;;;13.26;65.21;99274.61;220220;1257;139629;-72
2023/03/22 17:47:23;;;;;;;9.60;6.60;;;;;;;13.08;65.42;99273.09;217494;1257;139695;-70
2023/03/22 17:52:26;;;;;;;11.70;6.80;;;;;;;12.93;65.61;99273.66;217556;1259;140222;-75
2023/03/22 17:57:29;;;;;;;8.50;6.20;;;;;;;12.76;65.79;99267.17;217757;1256;139637;-72
2023/03/22 18:02:34;;;;;;;6.60;5.70;;;;;;;12.56;66.06;99267.38;217677;1257;140806;-73
2023/03/22 18:07:37;;;;;;;8.80;6.10;;;;;;;12.35;66.15;99261.95;218453;1256;140820;-74
2023/03/22 18:12:42;;;;;;;6.10;5.40;;;;;;;12.13;66.52;99260.70;217989;1257;139859;-75
2023/03/22 18:17:49;;;;;;;15.80;9.00;;;;;;;11.72;66.71;99260.50;217495;1256;139881;-77
2023/03/22 18:22:57;;;;;;;11.60;10.30;;;;;;;11.41;67.26;99259.76;217539;1257;140531;-74
2023/03/22 18:28:01;;;;;;;22.90;14.60;;;;;;;11.26;67.69;99267.77;217448;1258;140860;-74
2023/03/22 18:33:04;;;;;;;21.50;13.20;;;;;;;11.02;67.67;99268.67;218024;1258;139714;-71
2023/03/22 18:38:09;;;;;;;24.20;17.10;;;;;;;10.77;68.11;99261.33;217672;1259;140392;-76
2023/03/22 18:43:11;;;;;;;274.20;94.90;;;;;;;10.55;68.58;99260.61;218722;1257;141998;-71
2023/03/22 18:48:16;;;;;;;177.00;67.00;;;;;;;10.37;68.97;99258.44;217565;1259;140058;-74
2023/03/22 18:53:19;;;;;;;139.40;52.90;;;;;;;10.20;69.19;99258.17;217691;1256;140347;-73
2023/03/22 18:58:22;;;;;;;94.10;38.10;;;;;;;10.12;69.67;99252.55;217290;1258;748040;-74
2023/03/22 19:03:25;;;;;;;48.10;23.20;;;;;;;10.05;69.77;99249.26;217783;1259;140452;-68
2023/03/22 19:08:27;;;;;;;61.30;29.70;;;;;;;9.82;70.11;99243.77;217442;1255;139628;-72
2023/03/22 19:13:30;;;;;;;57.10;32.60;;;;;;;9.63;70.42;99242.66;217742;1257;140072;-78
2023/03/22 19:18:35;;;;;;;37.90;25.80;;;;;;;9.45;70.64;99237.62;217668;1254;140242;-74
2023/03/22 19:23:38;;;;;;;28.60;18.50;;;;;;;9.27;71.04;99235.58;218997;1259;140054;-71
2023/03/22 19:28:42;;;;;;;26.10;18.50;;;;;;;9.09;71.36;99234.29;218013;1257;139682;-71
2023/03/22 19:33:46;;;;;;;30.40;16.40;;;;;;;8.92;71.55;99225.98;219475;1257;146913;-70
2023/03/22 19:38:50;;;;;;;34.20;21.00;;;;;;;8.77;71.97;99222.77;218939;1259;140668;-76
2023/03/22 19:43:53;;;;;;;37.50;21.50;;;;;;;8.58;72.09;99224.77;220173;1257;140642;-70
2023/03/22 19:48:57;;;;;;;29.70;18.90;;;;;;;8.44;72.36;99222.94;220561;1257;140870;-75
2023/03/22 19:54:00;;;;;;;37.00;22.00;;;;;;;8.31;72.59;99225.30;218270;1256;141625;-71
2023/03/22 19:59:07;;;;;;;41.00;22.50;;;;;;;8.17;73.21;99222.73;218197;1256;141711;-71
2023/03/22 20:04:11;;;;;;;37.20;24.00;;;;;;;8.10;73.32;99221.67;217661;1256;139827;-72
2023/03/22 20:09:15;;;;;;;27.50;20.40;;;;;;;8.04;73.74;99211.98;217821;1258;140213;-74
2023/03/22 20:14:18;;;;;;;35.00;22.30;;;;;;;7.92;73.88;99208.99;217941;1254;140185;-67
2023/03/22 20:19:24;;;;;;;30.50;21.20;;;;;;;7.85;74.13;99210.59;217669;1257;139964;-68
2023/03/22 20:24:28;;;;;;;42.60;24.70;;;;;;;7.83;74.33;99209.12;217883;1256;139446;-70
2023/03/22 20:29:31;;;;;;;37.00;21.40;;;;;;;7.82;74.64;99204.19;217834;1257;139935;-71
2023/03/22 20:34:34;;;;;;;36.10;21.00;;;;;;;7.71;74.46;99204.60;218139;1257;139648;-72
2023/03/22 20:39:39;;;;;;;30.60;20.30;;;;;;;7.59;74.77;99200.89;218014;1256;140581;-73
2023/03/22 20:44:43;;;;;;;39.50;23.30;;;;;;;7.48;74.95;99192.08;218789;1256;139838;-69
2023/03/22 20:49:46;;;;;;;29.30;21.20;;;;;;;7.39;75.17;99195.63;217717;1257;140300;-73
2023/03/22 20:54:49;;;;;;;37.30;21.50;;;;;;;7.32;75.36;99192.64;217834;1257;139661;-71
2023/03/22 20:59:52;;;;;;;31.60;22.10;;;;;;;7.36;75.79;99191.94;218919;1257;140768;-71
2023/03/22 21:04:55;;;;;;;32.90;20.20;;;;;;;7.43;76.45;99185.80;217727;1257;141931;-68
2023/03/22 21:09:59;;;;;;;31.70;21.50;;;;;;;7.62;77.49;99181.55;217796;1259;141657;-70
2023/03/22 21:15:04;;;;;;;27.30;19.50;;;;;;;7.79;77.61;99177.90;217445;1259;139642;-69
2023/03/22 21:20:09;;;;;;;29.00;20.90;;;;;;;7.88;77.85;99173.56;220613;1259;139707;-71
2023/03/22 21:25:13;;;;;;;37.00;24.40;;;;;;;7.99;77.92;99172.90;220236;1255;140391;-72
2023/03/22 21:30:18;;;;;;;26.30;19.20;;;;;;;8.09;77.49;99169.52;220518;1256;139925;-69
2023/03/22 21:35:23;;;;;;;35.30;20.80;;;;;;;8.14;77.55;99168.19;219547;1259;140215;-71
2023/03/22 21:40:29;;;;;;;30.80;18.10;;;;;;;8.20;77.89;99172.00;220258;1257;141159;-69
2023/03/22 21:45:33;;;;;;;37.60;20.30;;;;;;;8.27;77.70;99168.30;220579;1257;140298;-69
2023/03/22 21:50:43;;;;;;;30.80;19.60;;;;;;;8.39;77.55;99166.10;218269;1257;140119;-68
2023/03/22 21:55:48;;;;;;;;;;;;;;;8.43;77.41;99164.34;218682;1258;139399;-68
2023/03/22 22:00:54;;;;;;;27.20;16.40;;;;;;;8.40;77.49;99162.03;218010;1259;127001;-72
2023/03/22 22:05:58;;;;;;;30.00;16.80;;;;;;;8.38;77.46;99161.36;217669;1259;140781;-70
2023/03/22 22:11:05;;;;;;;30.00;18.40;;;;;;;8.50;77.84;99159.43;217638;1257;139668;-70
2023/03/22 22:16:11;;;;;;;27.50;18.30;;;;;;;8.64;77.58;99155.70;218717;1257;139853;-69
2023/03/22 22:21:15;;;;;;;26.30;16.70;;;;;;;8.73;77.75;99148.23;217577;1256;138773;-70
2023/03/22 22:26:18;;;;;;;22.40;15.60;;;;;;;8.82;77.76;99155.27;218269;1259;140794;-71
2023/03/22 22:31:30;;;;;;;27.70;16.40;;;;;;;8.91;77.75;99154.99;217808;1259;139764;-71
2023/03/22 22:36:34;;;;;;;30.00;17.40;;;;;;;8.97;77.77;99151.48;217954;1257;141128;-71
2023/03/22 22:41:38;;;;;;;29.40;18.10;;;;;;;9.02;77.63;99151.90;217876;1256;140265;-70
2023/03/22 22:46:47;;;;;;;31.10;17.90;;;;;;;9.08;77.52;99149.64;217672;1257;140944;-70
2023/03/22 22:51:50;;;;;;;31.70;16.70;;;;;;;9.18;77.56;99148.19;217812;1256;140652;-71
2023/03/22 22:56:52;;;;;;;36.50;18.30;;;;;;;9.18;77.41;99148.61;217665;1257;139660;-69
2023/03/22 23:01:57;;;;;;;23.60;16.20;;;;;;;9.14;77.63;99144.36;217827;1259;139709;-70
2023/03/22 23:07:00;;;;;;;26.30;16.90;;;;;;;9.14;77.53;99143.35;217708;1257;140185;-72
2023/03/22 23:12:03;;;;;;;21.00;14.20;;;;;;;9.15;77.66;99143.89;218500;1259;140501;-71
2023/03/22 23:17:07;;;;;;;31.00;19.00;;;;;;;9.17;77.71;99144.52;218128;1259;233006;-70